sensor_id;sensor_type;location;lat;lon;timestamp;pressure;altitude;pressure_sealevel;temperature;humidity
22930;BME280;11630;42.660;23.292;2023-04-07T00:00:54;67921.91;;;3.48;66.31
22930;BME280;11630;42.660;23.292;2023-04-07T00:03:24;67928.64;;;3.50;66.00
22930;BME280;11630;42.660;23.292;2023-04-07T00:05:55;67920.05;;;3.47;66.07
22930;BME280;11630;42.660;23.292;2023-04-07T00:08:26;67931.06;;;3.51;64.97
22930;BME280;11630;42.660;23.292;2023-04-07T00:10:56;67924.59;;;3.48;65.78
22930;BME280;11630;42.660;23.292;2023-04-07T00:13:26;67923.00;;;3.49;65.64
22930;BME280;11630;42.660;23.292;2023-04-07T00:15:57;67923.55;;;3.49;65.84
22930;BME280;11630;42.660;23.292;2023-04-07T00:18:29;67933.50;;;3.55;66.46
22930;BME280;11630;42.660;23.292;2023-04-07T00:21:03;67922.45;;;3.46;66.43
22930;BME280;11630;42.660;23.292;2023-04-07T00:23:34;67916.50;;;3.40;66.84
22930;BME280;11630;42.660;23.292;2023-04-07T00:26:07;67921.38;;;3.47;66.09
22930;BME280;11630;42.660;23.292;2023-04-07T00:28:38;67919.47;;;3.44;65.72
22930;BME280;11630;42.660;23.292;2023-04-07T00:31:08;67923.00;;;3.49;65.40
22930;BME280;11630;42.660;23.292;2023-04-07T00:33:39;67922.72;;;3.47;65.50
22930;BME280;11630;42.660;23.292;2023-04-07T00:36:10;67913.84;;;3.43;65.16
22930;BME280;11630;42.660;23.292;2023-04-07T00:38:40;67920.81;;;3.44;65.28
22930;BME280;11630;42.660;23.292;2023-04-07T00:41:10;67918.69;;;3.45;66.05
22930;BME280;11630;42.660;23.292;2023-04-07T00:43:41;67918.95;;;3.46;66.55
22930;BME280;11630;42.660;23.292;2023-04-07T00:46:12;67928.91;;;3.49;67.33
22930;BME280;11630;42.660;23.292;2023-04-07T00:48:43;67914.91;;;3.41;68.26
22930;BME280;11630;42.660;23.292;2023-04-07T00:51:14;67908.68;;;3.34;66.65
22930;BME280;11630;42.660;23.292;2023-04-07T00:53:44;67925.66;;;3.46;64.76
22930;BME280;11630;42.660;23.292;2023-04-07T00:56:17;67915.70;;;3.43;65.04
22930;BME280;11630;42.660;23.292;2023-04-07T00:58:52;67928.95;;;3.54;64.86
22930;BME280;11630;42.660;23.292;2023-04-07T01:01:25;67932.97;;;3.54;64.96
22930;BME280;11630;42.660;23.292;2023-04-07T01:04:06;67925.44;;;3.52;65.48
22930;BME280;11630;42.660;23.292;2023-04-07T01:09:29;67922.98;;;3.46;65.03
22930;BME280;11630;42.660;23.292;2023-04-07T01:12:09;67926.50;;;3.51;64.99
22930;BME280;11630;42.660;23.292;2023-04-07T01:14:40;67926.23;;;3.49;65.70
22930;BME280;11630;42.660;23.292;2023-04-07T01:17:10;67923.02;;;3.51;64.97
22930;BME280;11630;42.660;23.292;2023-04-07T01:19:58;67914.08;;;3.39;66.08
22930;BME280;11630;42.660;23.292;2023-04-07T01:22:31;67911.39;;;3.39;65.93
22930;BME280;11630;42.660;23.292;2023-04-07T01:28:12;67920.55;;;3.45;65.46
22930;BME280;11630;42.660;23.292;2023-04-07T01:30:40;67928.67;;;3.53;64.62
22930;BME280;11630;42.660;23.292;2023-04-07T01:33:12;67932.72;;;3.55;64.42
22930;BME280;11630;42.660;23.292;2023-04-07T01:35:46;67934.34;;;3.59;65.03
22930;BME280;11630;42.660;23.292;2023-04-07T01:38:19;67928.69;;;3.55;65.76
22930;BME280;11630;42.660;23.292;2023-04-07T01:40:52;67925.70;;;3.51;66.39
22930;BME280;11630;42.660;23.292;2023-04-07T01:43:24;67931.63;;;3.54;66.33
22930;BME280;11630;42.660;23.292;2023-04-07T01:45:56;67938.63;;;3.58;65.95
22930;BME280;11630;42.660;23.292;2023-04-07T01:48:27;67931.91;;;3.56;65.71
22930;BME280;11630;42.660;23.292;2023-04-07T01:50:59;67936.52;;;3.61;63.96
22930;BME280;11630;42.660;23.292;2023-04-07T01:53:29;67957.58;;;3.78;62.60
22930;BME280;11630;42.660;23.292;2023-04-07T01:56:00;67955.67;;;3.75;61.99
22930;BME280;11630;42.660;23.292;2023-04-07T01:58:34;67955.16;;;3.77;61.55
22930;BME280;11630;42.660;23.292;2023-04-07T02:01:04;67950.02;;;3.71;61.74
22930;BME280;11630;42.660;23.292;2023-04-07T02:03:48;67955.16;;;3.77;60.94
22930;BME280;11630;42.660;23.292;2023-04-07T02:06:16;67957.02;;;3.78;61.27
22930;BME280;11630;42.660;23.292;2023-04-07T02:08:49;67945.44;;;3.71;61.87
22930;BME280;11630;42.660;23.292;2023-04-07T02:11:20;67958.37;;;3.78;62.98
22930;BME280;11630;42.660;23.292;2023-04-07T02:13:53;67933.26;;;3.58;63.24
22930;BME280;11630;42.660;23.292;2023-04-07T02:16:27;67930.55;;;3.53;62.30
22930;BME280;11630;42.660;23.292;2023-04-07T02:18:58;67934.88;;;3.57;62.05
22930;BME280;11630;42.660;23.292;2023-04-07T02:21:29;67932.97;;;3.54;61.88
22930;BME280;11630;42.660;23.292;2023-04-07T02:24:07;67932.20;;;3.57;61.20
22930;BME280;11630;42.660;23.292;2023-04-07T02:26:37;67932.45;;;3.56;61.36
22930;BME280;11630;42.660;23.292;2023-04-07T02:29:08;67935.42;;;3.60;61.61
22930;BME280;11630;42.660;23.292;2023-04-07T02:31:39;67934.39;;;3.64;60.87
22930;BME280;11630;42.660;23.292;2023-04-07T02:34:09;67944.59;;;3.66;60.55
22930;BME280;11630;42.660;23.292;2023-04-07T02:36:40;67949.75;;;3.72;60.37
22930;BME280;11630;42.660;23.292;2023-04-07T02:39:11;67950.02;;;3.74;59.98
22930;BME280;11630;42.660;23.292;2023-04-07T02:41:42;67942.73;;;3.68;60.24
22930;BME280;11630;42.660;23.292;2023-04-07T02:44:16;67955.98;;;3.79;60.11
22930;BME280;11630;42.660;23.292;2023-04-07T02:46:49;67957.32;;;3.79;59.75
22930;BME280;11630;42.660;23.292;2023-04-07T02:49:19;67963.55;;;3.86;59.61
22930;BME280;11630;42.660;23.292;2023-04-07T02:51:50;67963.01;;;3.88;60.47
22930;BME280;11630;42.660;23.292;2023-04-07T02:54:20;67966.26;;;3.91;59.87
22930;BME280;11630;42.660;23.292;2023-04-07T02:56:51;67975.69;;;3.96;60.13
22930;BME280;11630;42.660;23.292;2023-04-07T02:59:22;67980.30;;;4.01;59.89
22930;BME280;11630;42.660;23.292;2023-04-07T03:01:52;67970.27;;;3.88;60.11
22930;BME280;11630;42.660;23.292;2023-04-07T03:04:23;67974.60;;;3.95;60.13
22930;BME280;11630;42.660;23.292;2023-04-07T03:06:54;67980.83;;;4.02;60.05
22930;BME280;11630;42.660;23.292;2023-04-07T03:09:27;67980.28;;;3.99;59.77
22930;BME280;11630;42.660;23.292;2023-04-07T03:11:58;67978.94;;;3.99;60.52
22930;BME280;11630;42.660;23.292;2023-04-07T03:14:29;67984.59;;;4.03;60.32
22930;BME280;11630;42.660;23.292;2023-04-07T03:17:00;67978.67;;;4.00;60.66
22930;BME280;11630;42.660;23.292;2023-04-07T03:19:31;67974.34;;;3.96;60.58
22930;BME280;11630;42.660;23.292;2023-04-07T03:22:02;67977.56;;;3.94;60.67
22930;BME280;11630;42.660;23.292;2023-04-07T03:24:33;67971.95;;;3.97;60.82
22930;BME280;11630;42.660;23.292;2023-04-07T03:27:04;67964.08;;;3.86;60.94
22930;BME280;11630;42.660;23.292;2023-04-07T03:29:35;67969.77;;;3.93;61.35
22930;BME280;11630;42.660;23.292;2023-04-07T03:32:05;67966.77;;;3.89;62.13
22930;BME280;11630;42.660;23.292;2023-04-07T03:34:36;67962.45;;;3.82;62.56
22930;BME280;11630;42.660;23.292;2023-04-07T03:37:07;67970.00;;;3.87;62.42
22930;BME280;11630;42.660;23.292;2023-04-07T03:39:38;67960.88;;;3.88;62.39
22930;BME280;11630;42.660;23.292;2023-04-07T03:42:08;67951.63;;;3.73;62.36
22930;BME280;11630;42.660;23.292;2023-04-07T03:44:39;67943.28;;;3.69;62.59
22930;BME280;11630;42.660;23.292;2023-04-07T03:47:10;67951.34;;;3.69;62.34
22930;BME280;11630;42.660;23.292;2023-04-07T03:49:41;67953.50;;;3.73;62.48
22930;BME280;11630;42.660;23.292;2023-04-07T03:52:12;67950.27;;;3.70;62.98
22930;BME280;11630;42.660;23.292;2023-04-07T03:54:41;67945.67;;;3.67;63.19
22930;BME280;11630;42.660;23.292;2023-04-07T03:57:12;67945.42;;;3.68;63.05
22930;BME280;11630;42.660;23.292;2023-04-07T03:59:43;67951.88;;;3.72;63.16
22930;BME280;11630;42.660;23.292;2023-04-07T04:02:14;67943.80;;;3.67;62.88
22930;BME280;11630;42.660;23.292;2023-04-07T04:04:45;67938.38;;;3.62;63.73
22930;BME280;11630;42.660;23.292;2023-04-07T04:07:16;67940.28;;;3.62;63.78
22930;BME280;11630;42.660;23.292;2023-04-07T04:09:47;67934.34;;;3.59;63.60
22930;BME280;11630;42.660;23.292;2023-04-07T04:12:18;67939.77;;;3.64;63.44
22930;BME280;11630;42.660;23.292;2023-04-07T04:14:49;67941.65;;;3.67;63.14
22930;BME280;11630;42.660;23.292;2023-04-07T04:17:20;67945.97;;;3.69;62.85
22930;BME280;11630;42.660;23.292;2023-04-07T04:19:51;67949.72;;;3.70;62.50
22930;BME280;11630;42.660;23.292;2023-04-07T04:22:24;67951.91;;;3.77;62.36
22930;BME280;11630;42.660;23.292;2023-04-07T04:24:55;67962.45;;;3.85;62.65
22930;BME280;11630;42.660;23.292;2023-04-07T04:27:26;67966.00;;;3.92;62.98
22930;BME280;11630;42.660;23.292;2023-04-07T04:29:57;68004.07;;;4.21;62.54
22930;BME280;11630;42.660;23.292;2023-04-07T04:32:28;67995.95;;;4.13;61.65
22930;BME280;11630;42.660;23.292;2023-04-07T04:34:59;67994.33;;;4.12;61.36
22930;BME280;11630;42.660;23.292;2023-04-07T04:37:29;67986.25;;;4.07;60.56
22930;BME280;11630;42.660;23.292;2023-04-07T04:40:01;67982.72;;;4.02;59.98
22930;BME280;11630;42.660;23.292;2023-04-07T04:42:31;67994.08;;;4.13;60.67
22930;BME280;11630;42.660;23.292;2023-04-07T04:45:02;67984.06;;;4.02;60.82
22930;BME280;11630;42.660;23.292;2023-04-07T04:47:33;67995.16;;;4.14;61.52
22930;BME280;11630;42.660;23.292;2023-04-07T04:50:05;67997.61;;;4.20;60.24
22930;BME280;11630;42.660;23.292;2023-04-07T04:52:35;68006.77;;;4.23;60.60
22930;BME280;11630;42.660;23.292;2023-04-07T04:55:07;68025.94;;;4.37;60.00
22930;BME280;11630;42.660;23.292;2023-04-07T04:57:38;68013.55;;;4.31;59.44
22930;BME280;11630;42.660;23.292;2023-04-07T05:00:09;68010.31;;;4.30;59.77
22930;BME280;11630;42.660;23.292;2023-04-07T05:02:40;68021.38;;;4.37;59.15
22930;BME280;11630;42.660;23.292;2023-04-07T05:05:10;68034.92;;;4.52;58.21
22930;BME280;11630;42.660;23.292;2023-04-07T05:07:40;68057.38;;;4.73;58.23
22930;BME280;11630;42.660;23.292;2023-04-07T05:10:11;68053.02;;;4.67;56.89
22930;BME280;11630;42.660;23.292;2023-04-07T05:12:41;68053.83;;;4.66;57.00
22930;BME280;11630;42.660;23.292;2023-04-07T05:15:13;68068.19;;;4.83;57.28
22930;BME280;11630;42.660;23.292;2023-04-07T05:17:44;68109.05;;;5.22;57.46
22930;BME280;11630;42.660;23.292;2023-04-07T05:20:15;68102.81;;;5.13;57.21
22930;BME280;11630;42.660;23.292;2023-04-07T05:22:46;68096.31;;;5.07;58.24
22930;BME280;11630;42.660;23.292;2023-04-07T05:25:16;68094.42;;;5.06;56.55
22930;BME280;11630;42.660;23.292;2023-04-07T05:27:47;68129.59;;;5.36;55.46
22930;BME280;11630;42.660;23.292;2023-04-07T05:30:18;68109.85;;;5.19;54.99
22930;BME280;11630;42.660;23.292;2023-04-07T05:32:48;68116.62;;;5.27;55.50
22930;BME280;11630;42.660;23.292;2023-04-07T05:35:23;68142.86;;;5.47;54.57
22930;BME280;11630;42.660;23.292;2023-04-07T05:37:54;68137.99;;;5.45;55.54
22930;BME280;11630;42.660;23.292;2023-04-07T05:40:25;68173.22;;;5.80;53.73
22930;BME280;11630;42.660;23.292;2023-04-07T05:42:56;68150.17;;;5.55;55.74
22930;BME280;11630;42.660;23.292;2023-04-07T05:45:27;68151.53;;;5.57;57.04
22930;BME280;11630;42.660;23.292;2023-04-07T05:47:58;68158.02;;;5.63;65.61
22930;BME280;11630;42.660;23.292;2023-04-07T05:50:29;68105.25;;;5.16;71.23
22930;BME280;11630;42.660;23.292;2023-04-07T05:53:00;68132.05;;;5.42;70.41
22930;BME280;11630;42.660;23.292;2023-04-07T05:55:30;68139.08;;;5.46;70.44
22930;BME280;11630;42.660;23.292;2023-04-07T05:58:01;68133.38;;;5.39;72.20
22930;BME280;11630;42.660;23.292;2023-04-07T06:00:32;68115.80;;;5.25;71.70
22930;BME280;11630;42.660;23.292;2023-04-07T06:03:03;68119.61;;;5.31;72.19
22930;BME280;11630;42.660;23.292;2023-04-07T06:05:34;68143.97;;;5.53;67.49
22930;BME280;11630;42.660;23.292;2023-04-07T06:08:05;68158.33;;;5.67;66.18
22930;BME280;11630;42.660;23.292;2023-04-07T06:10:35;68147.44;;;5.50;68.04
22930;BME280;11630;42.660;23.292;2023-04-07T06:13:06;68169.17;;;5.77;64.81
22930;BME280;11630;42.660;23.292;2023-04-07T06:15:38;68187.31;;;5.93;66.34
22930;BME280;11630;42.660;23.292;2023-04-07T06:18:08;68232.51;;;6.30;66.27
22930;BME280;11630;42.660;23.292;2023-04-07T06:20:41;68230.38;;;6.33;64.71
22930;BME280;11630;42.660;23.292;2023-04-07T06:23:12;68221.70;;;6.25;54.83
22930;BME280;11630;42.660;23.292;2023-04-07T06:25:43;68203.83;;;6.07;53.22
22930;BME280;11630;42.660;23.292;2023-04-07T06:28:14;68185.94;;;5.90;52.88
22930;BME280;11630;42.660;23.292;2023-04-07T06:30:45;68176.48;;;5.83;53.12
22930;BME280;11630;42.660;23.292;2023-04-07T06:33:17;68192.71;;;5.95;53.63
22930;BME280;11630;42.660;23.292;2023-04-07T06:35:48;68206.79;;;6.08;52.98
22930;BME280;11630;42.660;23.292;2023-04-07T06:38:19;68216.30;;;6.20;52.43
22930;BME280;11630;42.660;23.292;2023-04-07T06:40:51;68237.38;;;6.32;51.59
22930;BME280;11630;42.660;23.292;2023-04-07T06:43:21;68229.79;;;6.25;51.02
22930;BME280;11630;42.660;23.292;2023-04-07T06:45:55;68236.32;;;6.34;51.88
22930;BME280;11630;42.660;23.292;2023-04-07T06:48:25;68220.59;;;6.19;51.53
22930;BME280;11630;42.660;23.292;2023-04-07T06:50:55;68197.34;;;6.03;51.38
22930;BME280;11630;42.660;23.292;2023-04-07T06:53:26;68234.72;;;6.37;51.42
22930;BME280;11630;42.660;23.292;2023-04-07T06:56:12;68261.22;;;6.54;51.32
22930;BME280;11630;42.660;23.292;2023-04-07T06:58:38;68255.55;;;6.53;50.36
22930;BME280;11630;42.660;23.292;2023-04-07T07:01:09;68313.85;;;7.10;49.04
22930;BME280;11630;42.660;23.292;2023-04-07T07:03:40;68331.73;;;7.24;49.69
22930;BME280;11630;42.660;23.292;2023-04-07T07:06:11;68256.66;;;6.56;49.75
22930;BME280;11630;42.660;23.292;2023-04-07T07:08:42;68271.83;;;6.70;49.99
22930;BME280;11630;42.660;23.292;2023-04-07T07:11:13;68286.20;;;6.85;49.82
22930;BME280;11630;42.660;23.292;2023-04-07T07:13:44;68336.05;;;7.23;48.64
22930;BME280;11630;42.660;23.292;2023-04-07T07:16:15;68340.94;;;7.30;48.19
22930;BME280;11630;42.660;23.292;2023-04-07T07:18:46;68325.75;;;7.16;48.76
22930;BME280;11630;42.660;23.292;2023-04-07T07:21:17;68311.37;;;7.01;48.60
22930;BME280;11630;42.660;23.292;2023-04-07T07:23:47;68301.63;;;6.95;49.00
22930;BME280;11630;42.660;23.292;2023-04-07T07:26:19;68316.52;;;7.05;49.44
22930;BME280;11630;42.660;23.292;2023-04-07T07:28:49;68360.47;;;7.48;48.59
22930;BME280;11630;42.660;23.292;2023-04-07T07:31:21;68361.25;;;7.45;48.41
22930;BME280;11630;42.660;23.292;2023-04-07T07:33:53;68310.58;;;7.02;48.97
22930;BME280;11630;42.660;23.292;2023-04-07T07:36:25;68343.11;;;7.32;48.66
22930;BME280;11630;42.660;23.292;2023-04-07T07:38:58;68335.26;;;7.26;48.77
22930;BME280;11630;42.660;23.292;2023-04-07T07:41:28;68362.61;;;7.45;48.54
22930;BME280;11630;42.660;23.292;2023-04-07T07:44:00;68317.90;;;7.10;48.61
22930;BME280;11630;42.660;23.292;2023-04-07T07:46:30;68315.45;;;7.06;48.42
22930;BME280;11630;42.660;23.292;2023-04-07T07:49:00;68335.52;;;7.25;48.54
22930;BME280;11630;42.660;23.292;2023-04-07T07:51:31;68321.97;;;7.15;48.06
22930;BME280;11630;42.660;23.292;2023-04-07T07:54:01;68324.10;;;7.12;49.35
22930;BME280;11630;42.660;23.292;2023-04-07T07:56:31;68315.20;;;7.10;49.37
22930;BME280;11630;42.660;23.292;2023-04-07T07:59:02;68326.30;;;7.19;48.97
22930;BME280;11630;42.660;23.292;2023-04-07T08:01:36;68315.98;;;7.07;48.67
22930;BME280;11630;42.660;23.292;2023-04-07T08:04:09;68298.09;;;6.88;48.79
22930;BME280;11630;42.660;23.292;2023-04-07T08:06:40;68302.17;;;6.95;48.64
22930;BME280;11630;42.660;23.292;2023-04-07T08:09:11;68331.17;;;7.23;48.59
22930;BME280;11630;42.660;23.292;2023-04-07T08:11:41;68359.12;;;7.48;48.58
22930;BME280;11630;42.660;23.292;2023-04-07T08:14:12;68377.01;;;7.62;48.17
22930;BME280;11630;42.660;23.292;2023-04-07T08:16:44;68423.67;;;8.07;47.12
22930;BME280;11630;42.660;23.292;2023-04-07T08:19:14;68434.27;;;8.15;46.04
22930;BME280;11630;42.660;23.292;2023-04-07T08:21:44;68416.08;;;8.02;46.35
22930;BME280;11630;42.660;23.292;2023-04-07T08:24:17;68390.33;;;7.80;46.92
22930;BME280;11630;42.660;23.292;2023-04-07T08:26:47;68409.56;;;7.94;46.70
22930;BME280;11630;42.660;23.292;2023-04-07T08:29:17;68428.86;;;8.15;46.32
22930;BME280;11630;42.660;23.292;2023-04-07T08:31:49;68429.09;;;8.09;47.11
22930;BME280;11630;42.660;23.292;2023-04-07T08:34:20;68377.81;;;7.63;47.30
22930;BME280;11630;42.660;23.292;2023-04-07T08:36:54;68351.80;;;7.42;47.77
22930;BME280;11630;42.660;23.292;2023-04-07T08:39:25;68339.86;;;7.31;48.79
22930;BME280;11630;42.660;23.292;2023-04-07T08:41:55;68357.73;;;7.45;48.71
22930;BME280;11630;42.660;23.292;2023-04-07T08:44:30;68351.79;;;7.40;49.14
22930;BME280;11630;42.660;23.292;2023-04-07T08:47:01;68424.23;;;8.07;47.54
22930;BME280;11630;42.660;23.292;2023-04-07T08:49:38;68440.51;;;8.22;46.33
22930;BME280;11630;42.660;23.292;2023-04-07T08:52:12;68496.97;;;8.71;46.00
22930;BME280;11630;42.660;23.292;2023-04-07T08:54:45;68472.28;;;8.50;45.37
22930;BME280;11630;42.660;23.292;2023-04-07T08:57:16;68462.77;;;8.42;45.92
22930;BME280;11630;42.660;23.292;2023-04-07T08:59:47;68488.01;;;8.62;45.35
22930;BME280;11630;42.660;23.292;2023-04-07T09:02:19;68497.78;;;8.71;44.73
22930;BME280;11630;42.660;23.292;2023-04-07T09:04:50;68507.30;;;8.81;44.56
22930;BME280;11630;42.660;23.292;2023-04-07T09:07:21;68586.35;;;9.57;43.63
22930;BME280;11630;42.660;23.292;2023-04-07T09:09:52;68569.49;;;9.39;43.72
22930;BME280;11630;42.660;23.292;2023-04-07T09:12:23;68590.42;;;9.59;43.73
22930;BME280;11630;42.660;23.292;2023-04-07T09:14:54;68558.91;;;9.30;43.41
22930;BME280;11630;42.660;23.292;2023-04-07T09:17:29;68564.59;;;9.32;43.92
22930;BME280;11630;42.660;23.292;2023-04-07T09:20:03;68567.61;;;9.41;43.51
22930;BME280;11630;42.660;23.292;2023-04-07T09:22:41;68565.16;;;9.40;43.64
22930;BME280;11630;42.660;23.292;2023-04-07T09:25:16;68553.19;;;9.24;43.78
22930;BME280;11630;42.660;23.292;2023-04-07T09:28:00;68561.36;;;9.34;43.91
22930;BME280;11630;42.660;23.292;2023-04-07T09:30:33;68547.77;;;9.21;44.22
22930;BME280;11630;42.660;23.292;2023-04-07T09:33:04;68529.02;;;9.03;44.40
22930;BME280;11630;42.660;23.292;2023-04-07T09:35:50;68567.61;;;9.38;43.35
22930;BME280;11630;42.660;23.292;2023-04-07T09:38:09;68562.44;;;9.32;44.06
22930;BME280;11630;42.660;23.292;2023-04-07T09:40:40;68510.84;;;8.88;45.02
22930;BME280;11630;42.660;23.292;2023-04-07T09:43:15;68478.23;;;8.55;45.49
22930;BME280;11630;42.660;23.292;2023-04-07T09:45:46;68518.18;;;8.96;45.35
22930;BME280;11630;42.660;23.292;2023-04-07T09:48:20;68532.83;;;9.07;44.41
22930;BME280;11630;42.660;23.292;2023-04-07T09:50:52;68554.81;;;9.25;44.35
22930;BME280;11630;42.660;23.292;2023-04-07T09:53:39;68529.84;;;9.03;45.25
22930;BME280;11630;42.660;23.292;2023-04-07T09:55:55;68558.09;;;9.28;45.04
22930;BME280;11630;42.660;23.292;2023-04-07T09:58:27;68642.62;;;10.07;43.75
22930;BME280;11630;42.660;23.292;2023-04-07T10:00:58;68703.80;;;10.62;41.71
22930;BME280;11630;42.660;23.292;2023-04-07T10:03:29;68788.97;;;11.41;41.14
22930;BME280;11630;42.660;23.292;2023-04-07T10:06:01;68775.89;;;11.29;40.58
22930;BME280;11630;42.660;23.292;2023-04-07T10:08:34;68765.55;;;11.14;40.75
22930;BME280;11630;42.660;23.292;2023-04-07T10:11:05;68822.73;;;11.69;40.43
22930;BME280;11630;42.660;23.292;2023-04-07T10:13:38;68709.23;;;10.67;41.06
22930;BME280;11630;42.660;23.292;2023-04-07T10:16:08;68595.59;;;9.65;43.02
22930;BME280;11630;42.660;23.292;2023-04-07T10:18:39;68580.10;;;9.50;43.74
22930;BME280;11630;42.660;23.292;2023-04-07T10:21:11;68595.29;;;9.59;43.62
22930;BME280;11630;42.660;23.292;2023-04-07T10:23:58;68636.06;;;9.96;43.67
22930;BME280;11630;42.660;23.292;2023-04-07T10:26:25;68611.59;;;9.71;43.32
22930;BME280;11630;42.660;23.292;2023-04-07T10:28:59;68605.11;;;9.75;43.18
22930;BME280;11630;42.660;23.292;2023-04-07T10:31:30;68590.16;;;9.60;43.85
22930;BME280;11630;42.660;23.292;2023-04-07T10:34:02;68627.42;;;9.98;44.08
22930;BME280;11630;42.660;23.292;2023-04-07T10:36:32;68624.13;;;9.90;43.64
22930;BME280;11630;42.660;23.292;2023-04-07T10:41:46;68633.89;;;9.94;43.46
22930;BME280;11630;42.660;23.292;2023-04-07T10:47:09;68601.27;;;9.67;44.18
22930;BME280;11630;42.660;23.292;2023-04-07T10:49:40;68589.33;;;9.58;44.45
22930;BME280;11630;42.660;23.292;2023-04-07T10:52:21;68522.24;;;8.96;47.68
22930;BME280;11630;42.660;23.292;2023-04-07T10:58:04;68475.78;;;8.52;50.05
22930;BME280;11630;42.660;23.292;2023-04-07T11:00:14;68461.67;;;8.39;51.03
22930;BME280;11630;42.660;23.292;2023-04-07T11:02:44;68440.81;;;8.26;50.65
22930;BME280;11630;42.660;23.292;2023-04-07T11:05:21;68507.84;;;8.81;50.07
22930;BME280;11630;42.660;23.292;2023-04-07T11:07:54;68562.16;;;9.33;49.70
22930;BME280;11630;42.660;23.292;2023-04-07T11:10:26;68555.64;;;9.25;49.50
22930;BME280;11630;42.660;23.292;2023-04-07T11:13:02;68601.84;;;9.70;48.48
22930;BME280;11630;42.660;23.292;2023-04-07T11:15:35;68565.69;;;9.35;49.14
22930;BME280;11630;42.660;23.292;2023-04-07T11:18:13;68562.16;;;9.33;49.44
22930;BME280;11630;42.660;23.292;2023-04-07T11:20:45;68598.86;;;9.68;48.99
22930;BME280;11630;42.660;23.292;2023-04-07T11:23:17;68579.84;;;9.51;48.71
22930;BME280;11630;42.660;23.292;2023-04-07T11:25:50;68523.05;;;8.98;50.05
22930;BME280;11630;42.660;23.292;2023-04-07T11:28:20;68539.08;;;9.11;50.54
22930;BME280;11630;42.660;23.292;2023-04-07T11:30:53;68543.18;;;9.23;50.00
22930;BME280;11630;42.660;23.292;2023-04-07T11:33:30;68519.53;;;8.96;50.50
22930;BME280;11630;42.660;23.292;2023-04-07T11:36:00;68585.27;;;9.58;49.70
22930;BME280;11630;42.660;23.292;2023-04-07T11:38:35;68622.48;;;9.89;49.37
22930;BME280;11630;42.660;23.292;2023-04-07T11:41:10;68648.06;;;10.09;49.66
22930;BME280;11630;42.660;23.292;2023-04-07T11:43:42;68550.75;;;9.20;52.09
22930;BME280;11630;42.660;23.292;2023-04-07T11:46:17;68605.38;;;9.72;49.83
22930;BME280;11630;42.660;23.292;2023-04-07T11:48:48;68558.08;;;9.26;50.29
22930;BME280;11630;42.660;23.292;2023-04-07T11:51:20;68570.31;;;9.38;51.79
22930;BME280;11630;42.660;23.292;2023-04-07T11:53:56;68581.99;;;9.50;50.45
22930;BME280;11630;42.660;23.292;2023-04-07T11:56:27;68612.98;;;9.79;50.26
22930;BME280;11630;42.660;23.292;2023-04-07T11:58:57;68640.98;;;10.03;50.22
22930;BME280;11630;42.660;23.292;2023-04-07T12:01:38;68620.33;;;9.89;50.48
22930;BME280;11630;42.660;23.292;2023-04-07T12:04:11;68615.70;;;9.86;51.51
22930;BME280;11630;42.660;23.292;2023-04-07T12:06:41;68605.91;;;9.77;51.64
22930;BME280;11630;42.660;23.292;2023-04-07T12:09:32;68677.42;;;10.39;49.47
22930;BME280;11630;42.660;23.292;2023-04-07T12:12:06;68657.03;;;10.19;49.85
22930;BME280;11630;42.660;23.292;2023-04-07T12:14:36;68747.05;;;11.00;47.98
22930;BME280;11630;42.660;23.292;2023-04-07T12:17:13;68796.32;;;11.51;46.68
22930;BME280;11630;42.660;23.292;2023-04-07T12:19:38;68869.84;;;12.16;45.32
22930;BME280;11630;42.660;23.292;2023-04-07T12:22:09;68868.22;;;12.14;44.42
22930;BME280;11630;42.660;23.292;2023-04-07T12:24:40;68850.78;;;11.96;44.02
22930;BME280;11630;42.660;23.292;2023-04-07T12:27:11;68733.17;;;10.86;46.01
22930;BME280;11630;42.660;23.292;2023-04-07T12:29:44;68707.08;;;10.70;46.24
22930;BME280;11630;42.660;23.292;2023-04-07T12:32:15;68647.25;;;10.12;48.58
22930;BME280;11630;42.660;23.292;2023-04-07T12:34:45;68662.47;;;10.26;48.11
22930;BME280;11630;42.660;23.292;2023-04-07T12:37:16;68673.09;;;10.37;48.66
22930;BME280;11630;42.660;23.292;2023-04-07T12:39:47;68649.16;;;10.13;48.54
22930;BME280;11630;42.660;23.292;2023-04-07T12:42:18;68645.33;;;10.07;49.96
22930;BME280;11630;42.660;23.292;2023-04-07T12:44:49;68686.13;;;10.49;48.17
22930;BME280;11630;42.660;23.292;2023-04-07T12:47:19;68697.25;;;10.51;47.88
22930;BME280;11630;42.660;23.292;2023-04-07T12:49:50;68718.50;;;10.77;47.23
22930;BME280;11630;42.660;23.292;2023-04-07T12:52:21;68656.48;;;10.16;48.76
22930;BME280;11630;42.660;23.292;2023-04-07T12:54:52;68700.00;;;10.61;48.24
22930;BME280;11630;42.660;23.292;2023-04-07T12:57:23;68706.25;;;10.63;47.87
22930;BME280;11630;42.660;23.292;2023-04-07T12:59:53;68678.25;;;10.43;49.73
22930;BME280;11630;42.660;23.292;2023-04-07T13:02:24;68715.78;;;10.73;48.64
22930;BME280;11630;42.660;23.292;2023-04-07T13:04:55;68716.58;;;10.74;48.30
22930;BME280;11630;42.660;23.292;2023-04-07T13:07:26;68715.78;;;10.77;48.23
22930;BME280;11630;42.660;23.292;2023-04-07T13:09:56;68721.21;;;10.77;47.42
22930;BME280;11630;42.660;23.292;2023-04-07T13:12:29;68723.93;;;10.82;47.62
22930;BME280;11630;42.660;23.292;2023-04-07T13:15:00;68729.92;;;10.90;48.05
22930;BME280;11630;42.660;23.292;2023-04-07T13:17:31;68776.98;;;11.27;47.71
22930;BME280;11630;42.660;23.292;2023-04-07T13:20:03;68754.95;;;11.08;47.38
22930;BME280;11630;42.660;23.292;2023-04-07T13:22:34;68767.47;;;11.22;46.84
22930;BME280;11630;42.660;23.292;2023-04-07T13:25:05;68729.66;;;10.86;47.81
22930;BME280;11630;42.660;23.292;2023-04-07T13:27:36;68716.31;;;10.68;48.25
22930;BME280;11630;42.660;23.292;2023-04-07T13:30:09;68634.20;;;9.98;50.45
22930;BME280;11630;42.660;23.292;2023-04-07T13:32:40;68654.03;;;10.15;50.07
22930;BME280;11630;42.660;23.292;2023-04-07T13:35:11;68609.17;;;9.75;52.19
22930;BME280;11630;42.660;23.292;2023-04-07T13:37:41;68607.82;;;9.75;52.46